sensor_id;sensor_type;location;lat;lon;timestamp;P1;durP1;ratioP1;P2;durP2;ratioP2
27558;SDS011;15002;52.028;5.670;2023-12-14T00:01:44;19.88;;;12.02;;
27558;SDS011;15002;52.028;5.670;2023-12-14T00:04:11;22.33;;;12.95;;
27558;SDS011;15002;52.028;5.670;2023-12-14T00:06:36;21.30;;;12.55;;
27558;SDS011;15002;52.028;5.670;2023-12-14T00:09:02;20.77;;;12.82;;
27558;SDS011;15002;52.028;5.670;2023-12-14T00:11:28;21.80;;;12.55;;
27558;SDS011;15002;52.028;5.670;2023-12-14T00:13:54;21.45;;;12.45;;
27558;SDS011;15002;52.028;5.670;2023-12-14T00:16:20;24.15;;;13.75;;
27558;SDS011;15002;52.028;5.670;2023-12-14T00:18:45;25.77;;;13.50;;
27558;SDS011;15002;52.028;5.670;2023-12-14T00:21:11;27.33;;;14.15;;
27558;SDS011;15002;52.028;5.670;2023-12-14T00:23:37;25.95;;;14.48;;
27558;SDS011;15002;52.028;5.670;2023-12-14T00:26:02;28.58;;;16.30;;
27558;SDS011;15002;52.028;5.670;2023-12-14T00:28:28;28.90;;;16.55;;
27558;SDS011;15002;52.028;5.670;2023-12-14T00:30:54;27.27;;;15.32;;
27558;SDS011;15002;52.028;5.670;2023-12-14T00:33:19;27.67;;;14.98;;
27558;SDS011;15002;52.028;5.670;2023-12-14T00:35:45;26.60;;;15.45;;
27558;SDS011;15002;52.028;5.670;2023-12-14T00:38:11;29.08;;;15.55;;
27558;SDS011;15002;52.028;5.670;2023-12-14T00:40:36;26.70;;;13.57;;
27558;SDS011;15002;52.028;5.670;2023-12-14T00:43:02;25.75;;;14.05;;
27558;SDS011;15002;52.028;5.670;2023-12-14T00:45:27;22.88;;;12.90;;
27558;SDS011;15002;52.028;5.670;2023-12-14T00:47:53;25.13;;;13.88;;
27558;SDS011;15002;52.028;5.670;2023-12-14T00:50:19;23.65;;;13.90;;
27558;SDS011;15002;52.028;5.670;2023-12-14T00:52:44;22.30;;;13.45;;
27558;SDS011;15002;52.028;5.670;2023-12-14T00:55:10;24.05;;;13.88;;
27558;SDS011;15002;52.028;5.670;2023-12-14T00:57:36;20.48;;;12.77;;
27558;SDS011;15002;52.028;5.670;2023-12-14T01:00:01;23.52;;;13.30;;
27558;SDS011;15002;52.028;5.670;2023-12-14T01:02:27;22.85;;;12.75;;
27558;SDS011;15002;52.028;5.670;2023-12-14T01:04:52;22.33;;;12.55;;
27558;SDS011;15002;52.028;5.670;2023-12-14T01:07:18;20.10;;;12.18;;
27558;SDS011;15002;52.028;5.670;2023-12-14T01:09:44;19.75;;;12.75;;
27558;SDS011;15002;52.028;5.670;2023-12-14T01:12:09;22.95;;;12.38;;
27558;SDS011;15002;52.028;5.670;2023-12-14T01:14:35;21.90;;;13.07;;
27558;SDS011;15002;52.028;5.670;2023-12-14T01:17:01;23.70;;;13.82;;
27558;SDS011;15002;52.028;5.670;2023-12-14T01:19:26;22.02;;;13.68;;
27558;SDS011;15002;52.028;5.670;2023-12-14T01:21:52;23.67;;;12.90;;
27558;SDS011;15002;52.028;5.670;2023-12-14T01:24:18;23.20;;;14.35;;
27558;SDS011;15002;52.028;5.670;2023-12-14T01:26:43;23.10;;;13.77;;
27558;SDS011;15002;52.028;5.670;2023-12-14T01:29:09;23.08;;;13.63;;
27558;SDS011;15002;52.028;5.670;2023-12-14T01:31:36;24.40;;;13.80;;
27558;SDS011;15002;52.028;5.670;2023-12-14T01:34:01;24.70;;;13.18;;
27558;SDS011;15002;52.028;5.670;2023-12-14T01:36:27;21.80;;;13.10;;
27558;SDS011;15002;52.028;5.670;2023-12-14T01:38:53;23.95;;;13.80;;
27558;SDS011;15002;52.028;5.670;2023-12-14T01:41:18;24.65;;;13.10;;
27558;SDS011;15002;52.028;5.670;2023-12-14T01:43:44;19.25;;;12.82;;
27558;SDS011;15002;52.028;5.670;2023-12-14T01:46:10;21.50;;;12.35;;
27558;SDS011;15002;52.028;5.670;2023-12-14T01:48:35;22.35;;;12.80;;
27558;SDS011;15002;52.028;5.670;2023-12-14T01:51:02;21.10;;;12.93;;
27558;SDS011;15002;52.028;5.670;2023-12-14T01:53:27;20.65;;;12.40;;
27558;SDS011;15002;52.028;5.670;2023-12-14T01:55:53;19.40;;;12.27;;
27558;SDS011;15002;52.028;5.670;2023-12-14T01:58:19;22.25;;;12.63;;
27558;SDS011;15002;52.028;5.670;2023-12-14T02:04:01;21.80;;;12.30;;
27558;SDS011;15002;52.028;5.670;2023-12-14T02:06:27;19.45;;;12.02;;
27558;SDS011;15002;52.028;5.670;2023-12-14T02:08:52;17.75;;;11.50;;
27558;SDS011;15002;52.028;5.670;2023-12-14T02:11:18;19.10;;;12.02;;
27558;SDS011;15002;52.028;5.670;2023-12-14T02:13:43;17.92;;;11.05;;
27558;SDS011;15002;52.028;5.670;2023-12-14T02:16:09;16.65;;;10.65;;
27558;SDS011;15002;52.028;5.670;2023-12-14T02:18:35;17.95;;;11.05;;
27558;SDS011;15002;52.028;5.670;2023-12-14T02:21:00;17.25;;;11.00;;
27558;SDS011;15002;52.028;5.670;2023-12-14T02:23:26;17.45;;;10.88;;
27558;SDS011;15002;52.028;5.670;2023-12-14T02:25:52;18.55;;;11.20;;
27558;SDS011;15002;52.028;5.670;2023-12-14T02:28:17;17.27;;;10.52;;
27558;SDS011;15002;52.028;5.670;2023-12-14T02:30:43;16.98;;;11.27;;
27558;SDS011;15002;52.028;5.670;2023-12-14T02:33:09;17.92;;;10.77;;
27558;SDS011;15002;52.028;5.670;2023-12-14T02:35:34;18.92;;;11.30;;
27558;SDS011;15002;52.028;5.670;2023-12-14T02:38:00;19.85;;;11.95;;
27558;SDS011;15002;52.028;5.670;2023-12-14T02:40:26;20.45;;;10.93;;
27558;SDS011;15002;52.028;5.670;2023-12-14T02:42:51;19.67;;;12.02;;
27558;SDS011;15002;52.028;5.670;2023-12-14T02:45:17;18.52;;;11.10;;
27558;SDS011;15002;52.028;5.670;2023-12-14T02:47:43;17.00;;;11.25;;
27558;SDS011;15002;52.028;5.670;2023-12-14T02:50:08;18.17;;;12.32;;
27558;SDS011;15002;52.028;5.670;2023-12-14T02:52:34;20.45;;;12.38;;
27558;SDS011;15002;52.028;5.670;2023-12-14T02:55:00;18.65;;;12.25;;
27558;SDS011;15002;52.028;5.670;2023-12-14T02:57:25;18.67;;;12.27;;
27558;SDS011;15002;52.028;5.670;2023-12-14T02:59:51;20.60;;;12.82;;
27558;SDS011;15002;52.028;5.670;2023-12-14T03:02:17;22.10;;;13.20;;
27558;SDS011;15002;52.028;5.670;2023-12-14T03:04:43;20.73;;;14.05;;
27558;SDS011;15002;52.028;5.670;2023-12-14T03:07:09;20.48;;;13.20;;
27558;SDS011;15002;52.028;5.670;2023-12-14T03:09:34;19.08;;;13.18;;
27558;SDS011;15002;52.028;5.670;2023-12-14T03:12:00;20.77;;;13.95;;
27558;SDS011;15002;52.028;5.670;2023-12-14T03:14:31;20.60;;;13.65;;
27558;SDS011;15002;52.028;5.670;2023-12-14T03:19:23;20.35;;;12.65;;
27558;SDS011;15002;52.028;5.670;2023-12-14T03:21:48;18.92;;;12.63;;
27558;SDS011;15002;52.028;5.670;2023-12-14T03:24:14;20.45;;;13.52;;
27558;SDS011;15002;52.028;5.670;2023-12-14T03:26:39;18.45;;;12.90;;
27558;SDS011;15002;52.028;5.670;2023-12-14T03:29:05;20.38;;;12.40;;
27558;SDS011;15002;52.028;5.670;2023-12-14T03:31:32;21.02;;;13.52;;
27558;SDS011;15002;52.028;5.670;2023-12-14T03:33:58;19.60;;;12.30;;
27558;SDS011;15002;52.028;5.670;2023-12-14T03:36:24;18.95;;;12.63;;
27558;SDS011;15002;52.028;5.670;2023-12-14T03:38:51;19.35;;;12.98;;
27558;SDS011;15002;52.028;5.670;2023-12-14T03:41:17;22.10;;;13.40;;
27558;SDS011;15002;52.028;5.670;2023-12-14T03:43:43;19.90;;;12.73;;
27558;SDS011;15002;52.028;5.670;2023-12-14T03:46:09;20.40;;;12.57;;
27558;SDS011;15002;52.028;5.670;2023-12-14T03:48:35;18.48;;;12.45;;
27558;SDS011;15002;52.028;5.670;2023-12-14T03:51:04;18.98;;;12.73;;
27558;SDS011;15002;52.028;5.670;2023-12-14T03:53:30;19.42;;;12.20;;
27558;SDS011;15002;52.028;5.670;2023-12-14T03:55:57;19.10;;;12.23;;
27558;SDS011;15002;52.028;5.670;2023-12-14T03:58:23;19.63;;;12.43;;
27558;SDS011;15002;52.028;5.670;2023-12-14T04:00:49;21.42;;;13.02;;
27558;SDS011;15002;52.028;5.670;2023-12-14T04:03:14;17.92;;;12.45;;
27558;SDS011;15002;52.028;5.670;2023-12-14T04:05:40;18.63;;;12.55;;
27558;SDS011;15002;52.028;5.670;2023-12-14T04:08:06;17.67;;;11.82;;
27558;SDS011;15002;52.028;5.670;2023-12-14T04:10:31;17.63;;;11.32;;
27558;SDS011;15002;52.028;5.670;2023-12-14T04:12:57;18.00;;;12.57;;
27558;SDS011;15002;52.028;5.670;2023-12-14T04:15:23;18.48;;;11.77;;
27558;SDS011;15002;52.028;5.670;2023-12-14T04:17:48;18.52;;;11.98;;
27558;SDS011;15002;52.028;5.670;2023-12-14T04:20:14;18.67;;;11.93;;
27558;SDS011;15002;52.028;5.670;2023-12-14T04:22:41;20.80;;;11.98;;
27558;SDS011;15002;52.028;5.670;2023-12-14T04:25:08;19.90;;;12.05;;
27558;SDS011;15002;52.028;5.670;2023-12-14T04:27:34;18.80;;;11.25;;
27558;SDS011;15002;52.028;5.670;2023-12-14T04:29:59;20.13;;;11.50;;
27558;SDS011;15002;52.028;5.670;2023-12-14T04:32:25;20.40;;;11.48;;
27558;SDS011;15002;52.028;5.670;2023-12-14T04:34:51;17.95;;;10.82;;
27558;SDS011;15002;52.028;5.670;2023-12-14T04:37:16;16.67;;;10.52;;
27558;SDS011;15002;52.028;5.670;2023-12-14T04:39:42;16.05;;;10.82;;
27558;SDS011;15002;52.028;5.670;2023-12-14T04:42:08;19.13;;;11.20;;
27558;SDS011;15002;52.028;5.670;2023-12-14T04:44:33;16.98;;;10.38;;
27558;SDS011;15002;52.028;5.670;2023-12-14T04:46:59;17.83;;;10.63;;
27558;SDS011;15002;52.028;5.670;2023-12-14T04:49:25;16.95;;;10.93;;
27558;SDS011;15002;52.028;5.670;2023-12-14T04:51:50;15.88;;;10.82;;
27558;SDS011;15002;52.028;5.670;2023-12-14T04:54:16;15.88;;;10.55;;
27558;SDS011;15002;52.028;5.670;2023-12-14T04:56:42;17.17;;;10.50;;
27558;SDS011;15002;52.028;5.670;2023-12-14T04:59:11;17.33;;;10.52;;
27558;SDS011;15002;52.028;5.670;2023-12-14T05:01:36;16.33;;;10.48;;
27558;SDS011;15002;52.028;5.670;2023-12-14T05:04:02;17.55;;;9.85;;
27558;SDS011;15002;52.028;5.670;2023-12-14T05:06:28;14.95;;;10.95;;
27558;SDS011;15002;52.028;5.670;2023-12-14T05:08:54;17.25;;;10.70;;
27558;SDS011;15002;52.028;5.670;2023-12-14T05:11:20;16.40;;;10.13;;
27558;SDS011;15002;52.028;5.670;2023-12-14T05:13:46;15.82;;;10.45;;
27558;SDS011;15002;52.028;5.670;2023-12-14T05:16:14;16.52;;;9.77;;
27558;SDS011;15002;52.028;5.670;2023-12-14T05:18:40;15.30;;;9.90;;
27558;SDS011;15002;52.028;5.670;2023-12-14T05:21:06;15.45;;;9.52;;
27558;SDS011;15002;52.028;5.670;2023-12-14T05:23:31;16.92;;;10.15;;
27558;SDS011;15002;52.028;5.670;2023-12-14T05:25:57;17.40;;;10.13;;
27558;SDS011;15002;52.028;5.670;2023-12-14T05:28:23;16.60;;;10.35;;
27558;SDS011;15002;52.028;5.670;2023-12-14T05:30:48;16.90;;;9.65;;
27558;SDS011;15002;52.028;5.670;2023-12-14T05:33:14;15.73;;;8.95;;
27558;SDS011;15002;52.028;5.670;2023-12-14T05:35:42;18.10;;;10.05;;
27558;SDS011;15002;52.028;5.670;2023-12-14T05:38:08;15.95;;;9.85;;
27558;SDS011;15002;52.028;5.670;2023-12-14T05:40:34;15.73;;;9.38;;
27558;SDS011;15002;52.028;5.670;2023-12-14T05:42:59;15.02;;;9.45;;
27558;SDS011;15002;52.028;5.670;2023-12-14T05:45:25;17.75;;;11.40;;
27558;SDS011;15002;52.028;5.670;2023-12-14T05:47:51;17.67;;;11.77;;
27558;SDS011;15002;52.028;5.670;2023-12-14T05:50:16;19.80;;;12.10;;
27558;SDS011;15002;52.028;5.670;2023-12-14T05:52:42;17.65;;;11.55;;
27558;SDS011;15002;52.028;5.670;2023-12-14T05:55:08;17.80;;;12.10;;
27558;SDS011;15002;52.028;5.670;2023-12-14T05:57:37;17.17;;;11.40;;
27558;SDS011;15002;52.028;5.670;2023-12-14T06:00:05;18.15;;;10.80;;
27558;SDS011;15002;52.028;5.670;2023-12-14T06:02:32;18.55;;;10.48;;
27558;SDS011;15002;52.028;5.670;2023-12-14T06:04:58;19.08;;;10.45;;
27558;SDS011;15002;52.028;5.670;2023-12-14T06:07:24;17.35;;;9.85;;
27558;SDS011;15002;52.028;5.670;2023-12-14T06:09:50;16.40;;;10.95;;
27558;SDS011;15002;52.028;5.670;2023-12-14T06:12:15;17.70;;;10.98;;
27558;SDS011;15002;52.028;5.670;2023-12-14T06:14:41;18.50;;;10.52;;
27558;SDS011;15002;52.028;5.670;2023-12-14T06:17:07;18.23;;;10.60;;
27558;SDS011;15002;52.028;5.670;2023-12-14T06:19:32;19.42;;;11.57;;
27558;SDS011;15002;52.028;5.670;2023-12-14T06:21:58;15.25;;;10.80;;
27558;SDS011;15002;52.028;5.670;2023-12-14T06:24:24;16.60;;;10.02;;
27558;SDS011;15002;52.028;5.670;2023-12-14T06:26:49;15.38;;;10.10;;
27558;SDS011;15002;52.028;5.670;2023-12-14T06:29:15;15.15;;;9.32;;
27558;SDS011;15002;52.028;5.670;2023-12-14T06:31:40;14.63;;;9.20;;
27558;SDS011;15002;52.028;5.670;2023-12-14T06:34:06;14.13;;;8.52;;
27558;SDS011;15002;52.028;5.670;2023-12-14T06:36:33;13.52;;;9.27;;
27558;SDS011;15002;52.028;5.670;2023-12-14T06:38:59;14.40;;;9.32;;
27558;SDS011;15002;52.028;5.670;2023-12-14T06:41:26;14.52;;;9.32;;
27558;SDS011;15002;52.028;5.670;2023-12-14T06:43:53;17.05;;;9.88;;
27558;SDS011;15002;52.028;5.670;2023-12-14T06:46:19;14.20;;;8.43;;
27558;SDS011;15002;52.028;5.670;2023-12-14T06:48:44;14.43;;;8.20;;
27558;SDS011;15002;52.028;5.670;2023-12-14T06:51:11;13.57;;;8.40;;
27558;SDS011;15002;52.028;5.670;2023-12-14T06:53:39;14.48;;;8.95;;
27558;SDS011;15002;52.028;5.670;2023-12-14T06:56:07;14.45;;;9.10;;
27558;SDS011;15002;52.028;5.670;2023-12-14T06:58:39;14.82;;;8.52;;
27558;SDS011;15002;52.028;5.670;2023-12-14T07:01:06;14.23;;;8.65;;
27558;SDS011;15002;52.028;5.670;2023-12-14T07:03:32;14.27;;;9.05;;
27558;SDS011;15002;52.028;5.670;2023-12-14T07:05:58;14.65;;;8.57;;
27558;SDS011;15002;52.028;5.670;2023-12-14T07:08:24;15.13;;;9.10;;
27558;SDS011;15002;52.028;5.670;2023-12-14T07:10:50;14.82;;;8.85;;
27558;SDS011;15002;52.028;5.670;2023-12-14T07:13:15;12.85;;;8.38;;
27558;SDS011;15002;52.028;5.670;2023-12-14T07:15:41;15.48;;;9.20;;
27558;SDS011;15002;52.028;5.670;2023-12-14T07:18:07;13.90;;;8.00;;
27558;SDS011;15002;52.028;5.670;2023-12-14T07:20:33;12.25;;;7.65;;
27558;SDS011;15002;52.028;5.670;2023-12-14T07:22:58;11.48;;;7.20;;
27558;SDS011;15002;52.028;5.670;2023-12-14T07:25:24;10.70;;;7.55;;
27558;SDS011;15002;52.028;5.670;2023-12-14T07:27:49;11.70;;;7.40;;
27558;SDS011;15002;52.028;5.670;2023-12-14T07:30:16;13.40;;;7.93;;
27558;SDS011;15002;52.028;5.670;2023-12-14T07:32:42;11.63;;;7.50;;
27558;SDS011;15002;52.028;5.670;2023-12-14T07:35:07;12.40;;;8.18;;
27558;SDS011;15002;52.028;5.670;2023-12-14T07:37:33;16.60;;;9.27;;
27558;SDS011;15002;52.028;5.670;2023-12-14T07:39:59;14.43;;;8.32;;
27558;SDS011;15002;52.028;5.670;2023-12-14T07:42:25;15.00;;;8.90;;
27558;SDS011;15002;52.028;5.670;2023-12-14T07:44:51;12.77;;;8.85;;
27558;SDS011;15002;52.028;5.670;2023-12-14T07:47:17;13.48;;;8.25;;
27558;SDS011;15002;52.028;5.670;2023-12-14T07:49:42;12.80;;;8.32;;
27558;SDS011;15002;52.028;5.670;2023-12-14T07:52:08;14.15;;;8.48;;
27558;SDS011;15002;52.028;5.670;2023-12-14T07:54:34;13.13;;;8.70;;
27558;SDS011;15002;52.028;5.670;2023-12-14T07:57:01;13.10;;;8.32;;
27558;SDS011;15002;52.028;5.670;2023-12-14T07:59:27;16.10;;;9.05;;
27558;SDS011;15002;52.028;5.670;2023-12-14T08:01:54;13.55;;;8.88;;
27558;SDS011;15002;52.028;5.670;2023-12-14T08:04:20;13.38;;;8.88;;
27558;SDS011;15002;52.028;5.670;2023-12-14T08:06:46;13.25;;;8.65;;
27558;SDS011;15002;52.028;5.670;2023-12-14T08:09:11;12.38;;;8.68;;
27558;SDS011;15002;52.028;5.670;2023-12-14T08:11:37;12.27;;;9.32;;
27558;SDS011;15002;52.028;5.670;2023-12-14T08:14:02;13.13;;;8.27;;
27558;SDS011;15002;52.028;5.670;2023-12-14T08:16:28;13.65;;;9.00;;
27558;SDS011;15002;52.028;5.670;2023-12-14T08:18:54;14.48;;;9.55;;
27558;SDS011;15002;52.028;5.670;2023-12-14T08:21:19;14.57;;;10.13;;
27558;SDS011;15002;52.028;5.670;2023-12-14T08:23:45;17.95;;;10.45;;
27558;SDS011;15002;52.028;5.670;2023-12-14T08:26:11;15.45;;;10.25;;
27558;SDS011;15002;52.028;5.670;2023-12-14T08:28:37;14.25;;;10.55;;
27558;SDS011;15002;52.028;5.670;2023-12-14T08:31:07;14.85;;;11.00;;
27558;SDS011;15002;52.028;5.670;2023-12-14T08:33:36;15.48;;;11.15;;
27558;SDS011;15002;52.028;5.670;2023-12-14T08:36:02;15.43;;;10.75;;
27558;SDS011;15002;52.028;5.670;2023-12-14T08:38:28;13.55;;;9.73;;
27558;SDS011;15002;52.028;5.670;2023-12-14T08:40:53;12.48;;;8.57;;
27558;SDS011;15002;52.028;5.670;2023-12-14T08:43:19;13.60;;;8.73;;
27558;SDS011;15002;52.028;5.670;2023-12-14T08:45:45;12.95;;;9.02;;
27558;SDS011;15002;52.028;5.670;2023-12-14T08:48:10;14.15;;;8.98;;
27558;SDS011;15002;52.028;5.670;2023-12-14T08:50:36;14.90;;;9.32;;
27558;SDS011;15002;52.028;5.670;2023-12-14T08:53:02;14.48;;;9.40;;
27558;SDS011;15002;52.028;5.670;2023-12-14T08:55:29;13.23;;;8.55;;
27558;SDS011;15002;52.028;5.670;2023-12-14T08:57:55;14.32;;;8.75;;
27558;SDS011;15002;52.028;5.670;2023-12-14T09:00:21;15.10;;;8.82;;
27558;SDS011;15002;52.028;5.670;2023-12-14T09:02:46;12.82;;;8.45;;
27558;SDS011;15002;52.028;5.670;2023-12-14T09:05:12;12.85;;;8.32;;
27558;SDS011;15002;52.028;5.670;2023-12-14T09:07:39;12.05;;;7.60;;
27558;SDS011;15002;52.028;5.670;2023-12-14T09:10:05;12.05;;;8.02;;
27558;SDS011;15002;52.028;5.670;2023-12-14T09:12:32;13.73;;;8.38;;
27558;SDS011;15002;52.028;5.670;2023-12-14T09:14:58;17.30;;;8.88;;
27558;SDS011;15002;52.028;5.670;2023-12-14T09:17:24;13.15;;;8.15;;
27558;SDS011;15002;52.028;5.670;2023-12-14T09:19:49;11.88;;;8.15;;
27558;SDS011;15002;52.028;5.670;2023-12-14T09:22:15;13.77;;;9.60;;
27558;SDS011;15002;52.028;5.670;2023-12-14T09:24:41;15.23;;;8.88;;
27558;SDS011;15002;52.028;5.670;2023-12-14T09:27:07;13.77;;;8.57;;
27558;SDS011;15002;52.028;5.670;2023-12-14T09:29:33;12.52;;;8.43;;
27558;SDS011;15002;52.028;5.670;2023-12-14T09:31:58;12.57;;;8.25;;
27558;SDS011;15002;52.028;5.670;2023-12-14T09:34:24;12.82;;;8.00;;
27558;SDS011;15002;52.028;5.670;2023-12-14T09:36:49;11.32;;;8.25;;
27558;SDS011;15002;52.028;5.670;2023-12-14T09:39:15;11.88;;;8.35;;
27558;SDS011;15002;52.028;5.670;2023-12-14T09:41:41;12.75;;;7.85;;
27558;SDS011;15002;52.028;5.670;2023-12-14T09:44:06;11.68;;;7.57;;
27558;SDS011;15002;52.028;5.670;2023-12-14T09:46:33;11.13;;;7.70;;
27558;SDS011;15002;52.028;5.670;2023-12-14T09:49:01;11.40;;;7.63;;
27558;SDS011;15002;52.028;5.670;2023-12-14T09:51:29;11.98;;;7.68;;
27558;SDS011;15002;52.028;5.670;2023-12-14T09:53:55;9.90;;;7.35;;
27558;SDS011;15002;52.028;5.670;2023-12-14T09:56:26;13.25;;;8.05;;
27558;SDS011;15002;52.028;5.670;2023-12-14T09:58:55;14.20;;;8.73;;
27558;SDS011;15002;52.028;5.670;2023-12-14T10:01:23;13.15;;;8.02;;
27558;SDS011;15002;52.028;5.670;2023-12-14T10:03:50;13.10;;;8.60;;
27558;SDS011;15002;52.028;5.670;2023-12-14T10:06:31;13.35;;;8.35;;
27558;SDS011;15002;52.028;5.670;2023-12-14T10:08:57;12.00;;;8.57;;
27558;SDS011;15002;52.028;5.670;2023-12-14T10:11:23;14.57;;;7.88;;
27558;SDS011;15002;52.028;5.670;2023-12-14T10:13:49;11.35;;;7.65;;
27558;SDS011;15002;52.028;5.670;2023-12-14T10:16:26;10.38;;;7.63;;
27558;SDS011;15002;52.028;5.670;2023-12-14T10:18:56;14.75;;;8.00;;
27558;SDS011;15002;52.028;5.670;2023-12-14T10:21:23;10.80;;;7.70;;
27558;SDS011;15002;52.028;5.670;2023-12-14T10:23:51;11.43;;;8.02;;
27558;SDS011;15002;52.028;5.670;2023-12-14T10:26:17;12.48;;;8.13;;
27558;SDS011;15002;52.028;5.670;2023-12-14T10:28:42;11.55;;;7.85;;
27558;SDS011;15002;52.028;5.670;2023-12-14T10:31:08;13.73;;;8.57;;
27558;SDS011;15002;52.028;5.670;2023-12-14T10:33:35;12.93;;;8.63;;
27558;SDS011;15002;52.028;5.670;2023-12-14T10:36:01;12.25;;;7.82;;
27558;SDS011;15002;52.028;5.670;2023-12-14T10:38:27;14.27;;;8.10;;
27558;SDS011;15002;52.028;5.670;2023-12-14T10:40:54;14.20;;;8.65;;
27558;SDS011;15002;52.028;5.670;2023-12-14T10:43:22;14.88;;;9.18;;
27558;SDS011;15002;52.028;5.670;2023-12-14T10:45:48;12.25;;;7.95;;
27558;SDS011;15002;52.028;5.670;2023-12-14T10:48:13;11.48;;;8.20;;
27558;SDS011;15002;52.028;5.670;2023-12-14T10:50:39;13.88;;;8.30;;
27558;SDS011;15002;52.028;5.670;2023-12-14T10:53:07;13.23;;;7.78;;
27558;SDS011;15002;52.028;5.670;2023-12-14T10:55:41;15.57;;;8.13;;
27558;SDS011;15002;52.028;5.670;2023-12-14T10:58:09;12.68;;;8.10;;
27558;SDS011;15002;52.028;5.670;2023-12-14T11:00:35;14.27;;;8.38;;
27558;SDS011;15002;52.028;5.670;2023-12-14T11:03:03;12.82;;;8.55;;
27558;SDS011;15002;52.028;5.670;2023-12-14T11:05:31;12.55;;;8.68;;
27558;SDS011;15002;52.028;5.670;2023-12-14T11:08:05;15.40;;;8.05;;
27558;SDS011;15002;52.028;5.670;2023-12-14T11:10:41;13.80;;;9.40;;
27558;SDS011;15002;52.028;5.670;2023-12-14T11:13:12;11.70;;;8.10;;
27558;SDS011;15002;52.028;5.670;2023-12-14T11:15:57;11.23;;;8.25;;
27558;SDS011;15002;52.028;5.670;2023-12-14T11:18:23;13.23;;;8.93;;
27558;SDS011;15002;52.028;5.670;2023-12-14T11:20:51;13.38;;;8.15;;
27558;SDS011;15002;52.028;5.670;2023-12-14T11:25:54;10.90;;;7.63;;
27558;SDS011;15002;52.028;5.670;2023-12-14T11:28:30;15.65;;;9.07;;
27558;SDS011;15002;52.028;5.670;2023-12-14T11:31:00;16.15;;;9.82;;
27558;SDS011;15002;52.028;5.670;2023-12-14T11:33:27;21.02;;;12.27;;
27558;SDS011;15002;52.028;5.670;2023-12-14T11:35:54;33.67;;;14.73;;
27558;SDS011;15002;52.028;5.670;2023-12-14T11:38:21;29.67;;;15.15;;
27558;SDS011;15002;52.028;5.670;2023-12-14T11:40:48;21.17;;;11.65;;
27558;SDS011;15002;52.028;5.670;2023-12-14T11:43:14;48.67;;;22.70;;
27558;SDS011;15002;52.028;5.670;2023-12-14T11:45:40;34.40;;;16.90;;
27558;SDS011;15002;52.028;5.670;2023-12-14T11:48:07;19.55;;;10.90;;
27558;SDS011;15002;52.028;5.670;2023-12-14T11:50:36;15.55;;;10.30;;
27558;SDS011;15002;52.028;5.670;2023-12-14T11:53:03;14.55;;;9.00;;
27558;SDS011;15002;52.028;5.670;2023-12-14T11:55:29;15.13;;;8.65;;
27558;SDS011;15002;52.028;5.670;2023-12-14T11:57:56;12.73;;;7.85;;
27558;SDS011;15002;52.028;5.670;2023-12-14T12:00:25;14.73;;;9.00;;
27558;SDS011;15002;52.028;5.670;2023-12-14T12:02:52;15.55;;;8.95;;
27558;SDS011;15002;52.028;5.670;2023-12-14T12:05:38;14.57;;;8.27;;
27558;SDS011;15002;52.028;5.670;2023-12-14T12:08:05;13.85;;;8.63;;
27558;SDS011;15002;52.028;5.670;2023-12-14T12:10:31;15.50;;;8.25;;
27558;SDS011;15002;52.028;5.670;2023-12-14T12:13:04;11.45;;;7.97;;
27558;SDS011;15002;52.028;5.670;2023-12-14T12:15:36;12.10;;;8.15;;
27558;SDS011;15002;52.028;5.670;2023-12-14T12:18:12;12.70;;;8.23;;
27558;SDS011;15002;52.028;5.670;2023-12-14T12:20:38;11.82;;;8.10;;
27558;SDS011;15002;52.028;5.670;2023-12-14T12:23:04;26.20;;;14.40;;
27558;SDS011;15002;52.028;5.670;2023-12-14T12:25:31;15.20;;;9.77;;
27558;SDS011;15002;52.028;5.670;2023-12-14T12:27:57;15.30;;;10.50;;
27558;SDS011;15002;52.028;5.670;2023-12-14T12:30:24;14.00;;;8.68;;
27558;SDS011;15002;52.028;5.670;2023-12-14T12:32:50;12.50;;;8.55;;
27558;SDS011;15002;52.028;5.670;2023-12-14T12:35:17;12.18;;;8.70;;
27558;SDS011;15002;52.028;5.670;2023-12-14T12:37:43;12.52;;;7.63;;
27558;SDS011;15002;52.028;5.670;2023-12-14T12:40:09;10.98;;;8.65;;
27558;SDS011;15002;52.028;5.670;2023-12-14T12:42:36;12.80;;;8.40;;
27558;SDS011;15002;52.028;5.670;2023-12-14T12:45:02;13.60;;;8.50;;
27558;SDS011;15002;52.028;5.670;2023-12-14T12:47:29;12.18;;;8.25;;
27558;SDS011;15002;52.028;5.670;2023-12-14T12:49:55;12.77;;;8.23;;
27558;SDS011;15002;52.028;5.670;2023-12-14T12:52:20;12.85;;;8.75;;
27558;SDS011;15002;52.028;5.670;2023-12-14T12:54:46;12.90;;;8.05;;
27558;SDS011;15002;52.028;5.670;2023-12-14T12:57:12;13.20;;;8.93;;
27558;SDS011;15002;52.028;5.670;2023-12-14T12:59:37;13.40;;;9.18;;
27558;SDS011;15002;52.028;5.670;2023-12-14T13:02:03;13.00;;;8.43;;
27558;SDS011;15002;52.028;5.670;2023-12-14T13:04:29;11.88;;;8.60;;
27558;SDS011;15002;52.028;5.670;2023-12-14T13:06:58;13.23;;;8.80;;
27558;SDS011;15002;52.028;5.670;2023-12-14T13:09:27;12.27;;;8.10;;
27558;SDS011;15002;52.028;5.670;2023-12-14T13:11:52;13.27;;;8.30;;
27558;SDS011;15002;52.028;5.670;2023-12-14T13:14:18;13.85;;;8.57;;
27558;SDS011;15002;52.028;5.670;2023-12-14T13:16:44;16.75;;;9.20;;
27558;SDS011;15002;52.028;5.670;2023-12-14T13:19:09;14.55;;;9.73;;
27558;SDS011;15002;52.028;5.670;2023-12-14T13:21:35;16.25;;;10.02;;
27558;SDS011;15002;52.028;5.670;2023-12-14T13:24:01;15.30;;;9.82;;
27558;SDS011;15002;52.028;5.670;2023-12-14T13:26:27;12.95;;;9.65;;
27558;SDS011;15002;52.028;5.670;2023-12-14T13:28:53;17.73;;;11.10;;
27558;SDS011;15002;52.028;5.670;2023-12-14T13:31:20;14.90;;;9.65;;
27558;SDS011;15002;52.028;5.670;2023-12-14T13:33:46;14.27;;;10.50;;
27558;SDS011;15002;52.028;5.670;2023-12-14T13:36:13;15.77;;;11.18;;
27558;SDS011;15002;52.028;5.670;2023-12-14T13:38:39;17.83;;;11.35;;
27558;SDS011;15002;52.028;5.670;2023-12-14T13:41:06;15.95;;;9.85;;
27558;SDS011;15002;52.028;5.670;2023-12-14T13:43:32;14.40;;;9.18;;
27558;SDS011;15002;52.028;5.670;2023-12-14T13:45:58;13.75;;;9.65;;
27558;SDS011;15002;52.028;5.670;2023-12-14T13:48:24;14.30;;;9.00;;
27558;SDS011;15002;52.028;5.670;2023-12-14T13:50:51;14.88;;;9.35;;
27558;SDS011;15002;52.028;5.670;2023-12-14T13:53:17;15.48;;;9.30;;
27558;SDS011;15002;52.028;5.670;2023-12-14T13:55:42;15.65;;;9.43;;
27558;SDS011;15002;52.028;5.670;2023-12-14T13:58:08;13.25;;;8.52;;
27558;SDS011;15002;52.028;5.670;2023-12-14T14:00:34;14.30;;;10.02;;
27558;SDS011;15002;52.028;5.670;2023-12-14T14:03:02;13.68;;;9.80;;
27558;SDS011;15002;52.028;5.670;2023-12-14T14:05:29;13.95;;;9.45;;
27558;SDS011;15002;52.028;5.670;2023-12-14T14:07:55;13.43;;;8.95;;
27558;SDS011;15002;52.028;5.670;2023-12-14T14:10:21;13.30;;;8.35;;
27558;SDS011;15002;52.028;5.670;2023-12-14T14:12:47;14.13;;;9.15;;
27558;SDS011;15002;52.028;5.670;2023-12-14T14:15:13;14.30;;;9.00;;
27558;SDS011;15002;52.028;5.670;2023-12-14T14:17:39;15.90;;;9.52;;
27558;SDS011;15002;52.028;5.670;2023-12-14T14:20:05;13.82;;;8.98;;
27558;SDS011;15002;52.028;5.670;2023-12-14T14:22:32;16.77;;;9.43;;
27558;SDS011;15002;52.028;5.670;2023-12-14T14:24:58;13.82;;;9.10;;
27558;SDS011;15002;52.028;5.670;2023-12-14T14:27:24;16.13;;;10.88;;
27558;SDS011;15002;52.028;5.670;2023-12-14T14:29:50;15.55;;;9.32;;
27558;SDS011;15002;52.028;5.670;2023-12-14T14:32:19;13.70;;;8.75;;